Mitsukawa Maru — JD2495 — position and weather

sailwx.info

Track history (hours):
 
Tides and Currents Weather Stations Pressure Air Temp Water Temp Dewpoint Dewpoint Depression Visibility Wind Speed Wind Dir Waves Ship Positions

Mitsukawa Maru

Last reported at 2015-Jun-14 20:33 UTC. Time now 2015-Jul-06 04:53 UTC.
Position N 34°37' E 134°58'.
Warning: this ship's position is 21 days out of date.

Length 105 m; draft 6.2 m.

Type: Cargo ship. MMSI: 431000326.

Date/timePositionNaut miles runAvg speedWind from/ knotsBaromVisibWave heightAir tempDewpointWater temp
2015-Jun-14 20:33N 34°37' E 134°58'8 8.5
2015-Jun-14 19:33N 34°31' E 135°04'1312.4
2015-Jun-14 18:32N 34°19' E 134°60'1111.0
2015-Jun-14 17:33N 34°08' E 134°57'182 4.8
2015-Jun-13 03:22N 34°31' E 138°35'4912.3
2015-Jun-12 23:24N 34°57' E 139°25'1213.7
2015-Jun-12 22:33N 35°04' E 139°37'1313.2
2015-Jun-12 21:33N 35°14' E 139°46'1211.8
2015-Jun-12 20:33N 35°26' E 139°45'1413.8
2015-Jun-12 19:34N 35°34' E 139°59'6 6.1
2015-Jun-12 18:34N 35°34' E 140°07'0 0.0
2015-Jun-12 17:20N 35°34' E 140°07'0 0.0
2015-Jun-12 16:14N 35°34' E 140°07'0 0.0
2015-Jun-12 15:20N 35°34' E 140°07'0 0.0
2015-Jun-12 14:32N 35°34' E 140°07'0 0.0
2015-Jun-12 13:26N 35°34' E 140°07'0 0.0
2015-Jun-12 12:32N 35°34' E 140°07'0 0.0
2015-Jun-12 11:26N 35°34' E 140°07'0 0.0
2015-Jun-12 10:32N 35°34' E 140°07'0 0.0
2015-Jun-12 09:32N 35°34' E 140°07'0 0.0
2015-Jun-12 08:32N 35°34' E 140°07'0 0.0
2015-Jun-12 07:32N 35°34' E 140°07'0 0.0
2015-Jun-12 06:26N 35°34' E 140°07'0 0.0
2015-Jun-12 04:32N 35°34' E 140°07'0 0.0
2015-Jun-12 03:32N 35°34' E 140°07'0 0.0
2015-Jun-12 02:32N 35°34' E 140°07'0 0.0
2015-Jun-12 01:26N 35°34' E 140°07'0 0.0
2015-Jun-12 00:32N 35°34' E 140°07'0 0.0
2015-Jun-11 23:32N 35°34' E 140°07'1 0.5
2015-Jun-11 22:33N 35°35' E 140°07'6 5.9
2015-Jun-11 21:33N 35°34' E 139°59'0 0.0
2015-Jun-11 20:30N 35°34' E 139°59'0 0.0
2015-Jun-11 19:24N 35°34' E 139°59'0 0.1
2015-Jun-11 18:30N 35°34' E 139°60'0 0.0
2015-Jun-11 17:30N 35°34' E 139°60'0 0.0
2015-Jun-11 15:30N 35°34' E 139°60'0 0.0
2015-Jun-11 14:24N 35°34' E 139°60'0 0.0
2015-Jun-11 13:30N 35°34' E 139°60'0 0.0
2015-Jun-11 12:30N 35°34' E 139°60'5 5.5
2015-Jun-11 11:33N 35°31' E 139°54'1212.2
2015-Jun-11 10:33N 35°21' E 139°45'1111.2
2015-Jun-11 09:33N 35°10' E 139°46'1111.4
2015-Jun-11 08:33N 35°01' E 139°38'1312.5
2015-Jun-11 07:30N 34°53' E 139°25'227 5.1
2015-Jun-09 10:33N 34°05' E 134°56'1514.7
2015-Jun-09 09:33N 34°19' E 134°59'1414.0
2015-Jun-09 08:33N 34°33' E 135°03'1010.4
2015-Jun-09 07:33N 34°34' E 134°50'  
Track history (hours):
 
Tides and Currents Weather Stations Pressure Air Temp Water Temp Dewpoint Dewpoint Depression Visibility Wind Speed Wind Dir Waves Ship Positions

Mitsukawa Maru

Last reported at 2015-Jun-14 20:33 UTC. Time now 2015-Jul-06 04:53 UTC.
Position N 34°37' E 134°58'.
Warning: this ship's position is 21 days out of date.

Length 105 m; draft 6.2 m.

Type: Cargo ship. MMSI: 431000326.

Date/timePositionNaut miles runAvg speedWind from/ knotsBaromVisibWave heightAir tempDewpointWater temp
2015-Jun-14 20:33N 34°37' E 134°58'8 8.5
2015-Jun-14 19:33N 34°31' E 135°04'1312.4
2015-Jun-14 18:32N 34°19' E 134°60'1111.0
2015-Jun-14 17:33N 34°08' E 134°57'182 4.8
2015-Jun-13 03:22N 34°31' E 138°35'4912.3
2015-Jun-12 23:24N 34°57' E 139°25'1213.7
2015-Jun-12 22:33N 35°04' E 139°37'1313.2
2015-Jun-12 21:33N 35°14' E 139°46'1211.8
2015-Jun-12 20:33N 35°26' E 139°45'1413.8
2015-Jun-12 19:34N 35°34' E 139°59'6 6.1
2015-Jun-12 18:34N 35°34' E 140°07'0 0.0
2015-Jun-12 17:20N 35°34' E 140°07'0 0.0
2015-Jun-12 16:14N 35°34' E 140°07'0 0.0
2015-Jun-12 15:20N 35°34' E 140°07'0 0.0
2015-Jun-12 14:32N 35°34' E 140°07'0 0.0
2015-Jun-12 13:26N 35°34' E 140°07'0 0.0
2015-Jun-12 12:32N 35°34' E 140°07'0 0.0
2015-Jun-12 11:26N 35°34' E 140°07'0 0.0
2015-Jun-12 10:32N 35°34' E 140°07'0 0.0
2015-Jun-12 09:32N 35°34' E 140°07'0 0.0
2015-Jun-12 08:32N 35°34' E 140°07'0 0.0
2015-Jun-12 07:32N 35°34' E 140°07'0 0.0
2015-Jun-12 06:26N 35°34' E 140°07'0 0.0
2015-Jun-12 04:32N 35°34' E 140°07'0 0.0
2015-Jun-12 03:32N 35°34' E 140°07'0 0.0
2015-Jun-12 02:32N 35°34' E 140°07'0 0.0
2015-Jun-12 01:26N 35°34' E 140°07'0 0.0
2015-Jun-12 00:32N 35°34' E 140°07'0 0.0
2015-Jun-11 23:32N 35°34' E 140°07'1 0.5
2015-Jun-11 22:33N 35°35' E 140°07'6 5.9
2015-Jun-11 21:33N 35°34' E 139°59'0 0.0
2015-Jun-11 20:30N 35°34' E 139°59'0 0.0
2015-Jun-11 19:24N 35°34' E 139°59'0 0.1
2015-Jun-11 18:30N 35°34' E 139°60'0 0.0
2015-Jun-11 17:30N 35°34' E 139°60'0 0.0
2015-Jun-11 15:30N 35°34' E 139°60'0 0.0
2015-Jun-11 14:24N 35°34' E 139°60'0 0.0
2015-Jun-11 13:30N 35°34' E 139°60'0 0.0
2015-Jun-11 12:30N 35°34' E 139°60'5 5.5
2015-Jun-11 11:33N 35°31' E 139°54'1212.2
2015-Jun-11 10:33N 35°21' E 139°45'1111.2
2015-Jun-11 09:33N 35°10' E 139°46'1111.4
2015-Jun-11 08:33N 35°01' E 139°38'1312.5
2015-Jun-11 07:30N 34°53' E 139°25'227 5.1
2015-Jun-09 10:33N 34°05' E 134°56'1514.7
2015-Jun-09 09:33N 34°19' E 134°59'1414.0
2015-Jun-09 08:33N 34°33' E 135°03'1010.4
2015-Jun-09 07:33N 34°34' E 134°50'  

Dump ship's entire track history